Hit Tracker is now ESPN Home Run Tracker! Hit Tracker founder Greg Rybarczyk is now collaborating with the ESPN Stats & Information Group to continue tracking all MLB home runs, and helping baseball fans know "How Far It Really Went!™" Please credit any information on this site to ESPN Stats & Information Group. For more information and analysis on home runs, please contact founder Greg Rybarczyk. E-Mail ESPN Home Run Tracker
Main Page | Ballparks | Park Overlays | Glossary | Highlight Homers | Feedback | Bio | 3 Types of HR's | AAA Home Run Derby Last Updated: June 27, 2016, 11:09 pm PST
If you want to know "How Far It Really Went!", then you've come to the right place! Welcome to the ESPN Home Run Tracker, where you can find accurate, transparently verifiable distances for every home run hit in MLB games. Please also check out the ESPN MLB Scoreboard throughout the 2016 season! Contact us at grybar@hittrackeronline.com.
Season:
Ballpark detail for Wrigley Field
Ballpark # of Home Runs HR per game Avg.
True
Distance
Avg.
Speed
Off
Bat
Avg.
Std.
Dist.
Wrigley Field 72 2.00 394.5 102.3 391.8

Scatter Plot of Home Runs Wrigley Field
 Overlay Ballpark:
Without range rings   With range rings

2016 Season Home Runs for Wrigley Field
Click headers to sort
Date Video Path Hitter Hitter
Team
Pitcher Pitcher
Team
INN Ballpark Type/
Luck
True
Dist.
Speed
Off
Bat
Elev.
Angle
Horiz.
Angle
Apex Impact Due To: Std.
Dist.
#
Parks
Wind Temp. Alt. ^
04/16/16 Video View Gonzalez, Carlos COL Wood, Travis CHC 9 Wrigley Fiel... PL 389 101.0 25.7 102.1 78 0 -1 0 390 18
04/14/16 Video View Bryant, Kris CHC Iglesias, Raisel CIN 2 Wrigley Fiel... JE 369 100.7 24.6 108.0 66 -1 -1 0 370 9
05/06/16 Video View Ramos, Wilson WSH Grimm, Justin CHC 8 Wrigley Fiel... ND 436 108.3 24.0 97.7 80 0 1 0 435 30
05/08/16 Video View Baez, Javier CHC Treinen, Blake WSH 13 Wrigley Fiel... ND 416 110.0 21.0 99.7 64 0 0 0 416 29
05/29/16 Video View Joseph, Tommy PHI Grimm, Justin CHC 9 Wrigley Fiel... JE 413 104.3 22.6 90.6 71 0 0 0 412 14
06/02/16 Video View Heyward, Jason CHC Urias, Julio LAD 5 Wrigley Fiel... JE 384 102.6 24.1 73.5 65 2 1 0 381 6
06/02/16 Video View Rizzo, Anthony CHC Howell, J.P. LAD 8 Wrigley Fiel... JE 409 103.9 22.4 92.9 69 1 0 0 407 3
06/04/16 Video View Rizzo, Anthony CHC Hudson, Daniel ARI 8 Wrigley Fiel... JE 414 107.0 22.2 81.9 69 0 -1 0 414 27
06/19/16 Video View Contreras, Willson CHC Schugel, A.J. PIT 6 Wrigley Fiel... JE 417 104.0 24.1 87.2 80 -1 0 0 417 23
06/19/16 Video View Russell, Addison CHC Rondon, Jorge PIT 7 Wrigley Fiel... JE 375 98.6 25.9 103.5 71 -1 1 0 374 3
06/21/16 Video View Carpenter, Matt STL Hammel, Jason CHC 3 Wrigley Fiel... JE 423 103.8 25.4 84.3 77 5 1 0 417 23
06/22/16 Video View Contreras, Willson CHC Wacha, Michael STL 7 Wrigley Fiel... JE/L 394 103.5 21.1 95.2 62 3 0 0 390 0
04/16/16 Video View Soler, Jorge CHC Bergman, Christian COL 4 Wrigley Fiel... PL 417 103.1 27.4 95.6 100 -1 -1 1 418 27
04/16/16 Video View Fowler, Dexter CHC Hale, David COL 7 Wrigley Fiel... PL 397 102.6 26.1 76.6 81 -1 -1 1 398 29
04/13/16 Video View Bryant, Kris CHC Sampson, Keyvius CIN 4 Wrigley Fiel... PL 394 108.9 25.7 122.2 71 -2 -2 1 397 30
04/11/16 Video View Hamilton, Billy CIN Lester, Jon CHC 3 Wrigley Fiel... JE 361 98.3 32.0 111.3 102 -9 -4 1 373 29
04/11/16 Video View Russell, Addison CHC Diaz, Jumbo CIN 8 Wrigley Fiel... JE 371 96.3 29.7 102.8 92 0 -3 1 373 1
04/29/16 Video View Freeman, Freddie ATL Lester, Jon CHC 4 Wrigley Fiel... PL 398 101.8 30.0 74.1 99 1 -4 1 398 30
05/05/16 Video View Zobrist, Ben CHC Rivero, Felipe WSH 8 Wrigley Fiel... PL 397 101.1 28.3 102.5 92 0 -3 1 398 30
05/06/16 Video View La Stella, Tommy CHC Scherzer, Max WSH 2 Wrigley Fiel... PL 400 102.4 27.1 76.3 88 -3 1 1 400 29
05/06/16 Video View Zobrist, Ben CHC Scherzer, Max WSH 5 Wrigley Fiel... PL 400 102.5 27.0 74.4 83 1 1 1 396 27
05/10/16 Video View Upton Jr., Melvin SD Lester, Jon CHC 4 Wrigley Fiel... JE 370 100.4 27.8 115.2 76 -1 -1 1 372 27
05/10/16 Video View Dickerson, Alex SD Warren, Adam CHC 8 Wrigley Fiel... PL 396 102.9 25.7 75.5 78 0 -1 1 396 27
05/13/16 Video View Bryant, Kris CHC Liriano, Francisco PIT 5 Wrigley Fiel... JE 377 96.6 27.7 99.6 80 0 0 1 376 1
05/13/16 Video View Ross, David CHC Liriano, Francisco PIT 5 Wrigley Fiel... PL 396 98.2 29.0 97.5 87 6 0 1 390 2
05/15/16 Video View Kang, Jung Ho PIT Rondon, Hector CHC 9 Wrigley Fiel... PL 384 97.4 30.4 98.5 101 0 -3 1 385 3
05/27/16 Video View Soler, Jorge CHC Morgan, Adam PHI 4 Wrigley Fiel... ND 452 112.7 25.3 103.5 92 -2 1 1 452 30
05/27/16 Video View Ross, David CHC Morgan, Adam PHI 4 Wrigley Fiel... ND 410 105.5 28.9 110.0 96 -4 1 1 410 30
05/29/16 Video View Montero, Miguel CHC Velasquez, Vince PHI 2 Wrigley Fiel... ND 415 106.1 29.8 60.6 90 12 2 1 401 30
05/29/16 Video View Zobrist, Ben CHC Velasquez, Vince PHI 3 Wrigley Fiel... JE 369 101.9 24.6 66.6 61 2 0 1 366 10
05/31/16 Video View Seager, Corey LAD Cahill, Trevor CHC 9 Wrigley Fiel... PL 401 109.0 24.5 64.9 70 -1 0 1 402 30
06/01/16 Video View Hernandez, Enrique LAD Lester, Jon CHC 1 Wrigley Fiel... JE 365 95.9 28.3 106.2 76 1 1 1 363 2
06/02/16 Video View Baez, Javier CHC Urias, Julio LAD 4 Wrigley Fiel... PL 401 106.1 27.0 116.0 77 1 1 1 398 30
06/04/16 Video View Lamb, Jake ARI Hammel, Jason CHC 1 Wrigley Fiel... PL 386 108.5 21.8 69.5 58 0 0 1 385 24
06/04/16 Video View Fowler, Dexter CHC Escobar, Edwin ARI 1 Wrigley Fiel... ND 404 104.5 27.1 107.7 85 -1 0 1 405 30
06/04/16 Video View Tomas, Yasmany ARI Strop, Pedro CHC 8 Wrigley Fiel... JE 370 104.2 25.3 123.1 62 0 0 1 369 30
06/05/16 Video View Baez, Javier CHC Corbin, Patrick ARI 6 Wrigley Fiel... JE 372 95.7 31.4 69.1 85 9 1 1 360 10
06/17/16 Video View Szczur, Matt CHC Liriano, Francisco PIT 1 Wrigley Fiel... PL 388 99.4 28.6 104.6 88 0 1 1 386 21
06/18/16 Video View Mercer, Jordy PIT Lester, Jon CHC 1 Wrigley Fiel... PL 391 104.6 24.5 108.5 68 0 0 1 390 30
06/18/16 Video View Rizzo, Anthony CHC Niese, Jonathon PIT 2 Wrigley Fiel... PL 388 108.3 24.3 58.7 63 0 0 1 386 30
06/18/16 Video View Ross, David CHC Niese, Jonathon PIT 6 Wrigley Fiel... PL 377 96.9 29.1 101.9 88 -1 1 1 377 3
06/19/16 Video View Baez, Javier CHC Taillon, Jameson PIT 2 Wrigley Fiel... PL 394 101.0 28.1 102.2 96 -7 2 1 398 28
06/19/16 Video View Rizzo, Anthony CHC Taillon, Jameson PIT 3 Wrigley Fiel... PL 375 96.7 29.2 102.4 90 -4 2 1 375 3
06/19/16 Video View Bryant, Kris CHC Taillon, Jameson PIT 3 Wrigley Fiel... JE 367 104.4 24.7 122.3 61 -2 1 1 367 30
06/19/16 Video View Harrison, Josh PIT Hendricks, Kyle CHC 4 Wrigley Fiel... JE 412 102.6 24.6 91.1 82 0 1 1 411 14
06/20/16 Video View Moss, Brandon STL Lackey, John CHC 2 Wrigley Fiel... PL 410 103.5 27.0 75.2 81 3 2 1 404 29
06/21/16 Video View Holliday, Matt STL Hammel, Jason CHC 3 Wrigley Fiel... ND 431 105.5 25.4 95.6 82 2 1 1 427 27
06/22/16 Video View Diaz, Aledmys STL Edwards Jr., Carl CHC 6 Wrigley Fiel... PL 411 101.9 26.8 95.2 91 -2 1 1 410 20
04/17/16 Video View Arenado, Nolan COL Lester, Jon CHC 4 Wrigley Fiel... JE 364 97.1 31.6 108.7 99 -8 -1 2 370 21
04/17/16 Video View Arenado, Nolan COL Grimm, Justin CHC 9 Wrigley Fiel... PL 393 100.7 30.5 104.8 103 -3 0 2 394 30
04/16/16 Video View Rizzo, Anthony CHC Bergman, Christian COL 4 Wrigley Fiel... PL 381 100.1 31.5 65.7 95 3 -2 2 378 29
04/28/16 Video View Ross, David CHC Jungmann, Taylor MIL 2 Wrigley Fiel... PL 402 107.1 29.5 108.3 112 -16 -4 2 422 30
04/29/16 Video View Szczur, Matt CHC Withrow, Chris ATL 8 Wrigley Fiel... PL 367 96.7 32.7 105.8 108 -2 -4 2 371 9
05/05/16 Video View Werth, Jayson WSH Wood, Travis CHC 9 Wrigley Fiel... PL 395 103.2 32.1 109.1 114 -1 -5 2 399 30
05/06/16 Video View Rendon, Anthony WSH Lackey, John CHC 1 Wrigley Fiel... PL 390 97.5 31.1 97.8 102 1 1 2 386 4
05/06/16 Video View Zobrist, Ben CHC Scherzer, Max WSH 3 Wrigley Fiel... PL 378 99.5 31.6 67.0 99 -2 2 2 376 27
05/07/16 Video View Bryant, Kris CHC Gonzalez, Gio WSH 4 Wrigley Fiel... PL 401 99.9 33.0 106.6 110 17 -3 2 384 20
05/11/16 Video View Wallace, Brett SD Strop, Pedro CHC 7 Wrigley Fiel... PL 377 97.5 33.1 101.1 114 -2 -3 2 380 5
05/11/16 Video View Bethancourt, Christian SD Lackey, John CHC 5 Wrigley Fiel... ND 431 111.3 29.3 114.3 106 -1 -4 2 433 30
05/14/16 Video View Russell, Addison CHC Locke, Jeff PIT 6 Wrigley Fiel... JE 370 97.0 31.2 109.5 92 4 -3 2 368 17
05/28/16 Video View Fowler, Dexter CHC Eickhoff, Jerad PHI 1 Wrigley Fiel... JE/L 379 95.2 34.3 94.7 114 5 1 2 371 0
05/29/16 Video View Goeddel, Tyler PHI Lackey, John CHC 7 Wrigley Fiel... JE/L 387 96.6 34.7 96.8 116 9 3 2 374 0
06/01/16 Video View Bryant, Kris CHC Bolsinger, Mike LAD 3 Wrigley Fiel... PL 423 102.2 29.2 91.1 103 4 1 2 417 24
06/02/16 Video View Thompson, Trayce LAD Hendricks, Kyle CHC 5 Wrigley Fiel... JE/L 377 94.0 33.5 99.5 99 11 3 2 362 0
06/18/16 Video View Bryant, Kris CHC Niese, Jonathon PIT 5 Wrigley Fiel... ND 461 115.1 27.9 109.6 108 0 1 2 459 30
05/06/16 Video View Rizzo, Anthony CHC Scherzer, Max WSH 3 Wrigley Fiel... ND 404 108.3 34.2 59.1 124 -6 3 3 404 30
05/13/16 Video View McCutchen, Andrew PIT Cahill, Trevor CHC 9 Wrigley Fiel... JE/L 367 96.3 38.5 100.4 133 14 -1 3 351 0
05/27/16 Video View Bryant, Kris CHC Morgan, Adam PHI 5 Wrigley Fiel... PL 401 104.4 35.5 112.0 130 7 4 3 388 30
06/02/16 Video View Bryant, Kris CHC Urias, Julio LAD 5 Wrigley Fiel... ND 442 107.3 31.6 100.6 125 5 4 3 431 30
05/13/16 Video View Russell, Addison CHC Liriano, Francisco PIT 4 Wrigley Fiel... PL 385 100.5 38.4 106.4 140 22 0 4 361 4
05/14/16 Video View Rizzo, Anthony CHC Locke, Jeff PIT 4 Wrigley Fiel... PL/L 375 97.3 41.2 70.9 138 51 -8 4 327 0
06/20/16 Video View Peralta, Jhonny STL Lackey, John CHC 3 Wrigley Fiel... PL 367 102.4 37.8 110.3 147 -9 4 4 368 23


About HitTracker | Contact Us
© 2006-2016 HitTrackerOnline